createdAt,value
2023-04-29T00:00:55.900Z,56.70
2023-04-29T00:03:22.986Z,66.28
2023-04-29T00:05:49.941Z,63.40
2023-04-29T00:08:16.573Z,71.85
2023-04-29T00:10:43.254Z,78.88
2023-04-29T00:13:10.109Z,91.22
2023-04-29T00:15:37.460Z,87.43
2023-04-29T00:18:04.084Z,91.60
2023-04-29T00:20:30.704Z,97.43
2023-04-29T00:22:57.273Z,107.63
2023-04-29T00:25:24.138Z,103.75
2023-04-29T00:27:50.894Z,112.22
2023-04-29T00:30:17.593Z,118.15
2023-04-29T00:32:44.818Z,114.95
2023-04-29T00:35:12.091Z,118.55
2023-04-29T00:37:38.878Z,126.88
2023-04-29T00:40:06.911Z,124.55
2023-04-29T00:42:33.927Z,127.45
2023-04-29T00:45:01.800Z,129.30
2023-04-29T00:47:28.869Z,118.25
2023-04-29T00:50:07.731Z,126.15
2023-04-29T00:52:35.178Z,134.52
2023-04-29T00:55:03.013Z,117.53
2023-04-29T00:57:30.158Z,114.88
2023-04-29T01:00:00.388Z,133.68
2023-04-29T01:02:28.913Z,117.40
2023-04-29T01:04:55.812Z,117.15
2023-04-29T01:07:38.510Z,120.32
2023-04-29T01:10:10.747Z,118.90
2023-04-29T01:12:47.051Z,131.55
2023-04-29T01:15:25.093Z,122.63
2023-04-29T01:18:05.555Z,120.35
2023-04-29T01:20:33.773Z,126.13
2023-04-29T01:23:00.833Z,142.43
2023-04-29T01:25:28.860Z,142.38
2023-04-29T01:28:20.798Z,139.80
2023-04-29T01:31:01.218Z,141.90
2023-04-29T01:34:02.152Z,141.60
2023-04-29T01:36:29.538Z,133.00
2023-04-29T01:39:16.564Z,148.98
2023-04-29T01:41:59.750Z,132.57
2023-04-29T01:44:30.075Z,147.18
2023-04-29T01:46:56.994Z,152.95
2023-04-29T01:49:35.717Z,136.38
2023-04-29T01:52:02.437Z,125.10
2023-04-29T01:54:30.145Z,139.13
2023-04-29T01:56:58.634Z,138.90
2023-04-29T01:59:35.526Z,144.30
2023-04-29T02:02:39.900Z,148.50
2023-04-29T02:05:34.380Z,128.30
2023-04-29T02:08:02.026Z,122.10
2023-04-29T02:10:30.831Z,123.03
2023-04-29T02:13:08.670Z,119.03
2023-04-29T02:15:35.377Z,107.00
2023-04-29T02:18:02.071Z,104.65
2023-04-29T02:20:28.898Z,108.78
2023-04-29T02:22:55.920Z,98.43
2023-04-29T02:25:22.688Z,105.82
2023-04-29T02:27:49.223Z,98.97
2023-04-29T02:30:16.179Z,106.85
2023-04-29T02:32:42.873Z,103.30
2023-04-29T02:35:09.754Z,105.68
2023-04-29T02:37:36.454Z,99.95
2023-04-29T02:40:03.645Z,106.57
2023-04-29T02:42:30.789Z,119.18
2023-04-29T02:44:57.824Z,113.60
2023-04-29T02:47:24.677Z,117.07
2023-04-29T02:49:51.802Z,117.30
2023-04-29T02:52:19.099Z,130.68
2023-04-29T02:54:46.512Z,131.98
2023-04-29T02:57:22.314Z,127.97
2023-04-29T02:59:49.273Z,131.07
2023-04-29T03:02:16.378Z,133.43
2023-04-29T03:04:46.708Z,124.78
2023-04-29T03:07:13.277Z,123.07
2023-04-29T03:09:39.896Z,132.40
2023-04-29T03:12:07.096Z,132.65
2023-04-29T03:14:33.674Z,130.00
2023-04-29T03:17:00.540Z,126.03
2023-04-29T03:19:27.459Z,141.77
2023-04-29T03:21:54.371Z,139.90
2023-04-29T03:24:21.945Z,163.93
2023-04-29T03:26:48.668Z,140.18
2023-04-29T03:29:15.656Z,143.63
2023-04-29T03:31:42.528Z,145.38
2023-04-29T03:34:09.347Z,141.60
2023-04-29T03:36:40.495Z,136.63
2023-04-29T03:39:08.145Z,145.40
2023-04-29T03:41:34.791Z,138.50
2023-04-29T03:44:01.529Z,128.13
2023-04-29T03:46:29.716Z,134.57
2023-04-29T03:48:56.534Z,128.38
2023-04-29T03:51:24.468Z,120.20
2023-04-29T03:53:57.959Z,112.88
2023-04-29T03:56:25.511Z,141.77
2023-04-29T03:58:52.990Z,118.72
2023-04-29T04:01:21.560Z,117.45
2023-04-29T04:03:49.075Z,117.55
2023-04-29T04:06:16.367Z,114.72
2023-04-29T04:08:43.031Z,103.63
2023-04-29T04:11:19.876Z,106.28
2023-04-29T04:13:59.042Z,100.07
2023-04-29T04:16:25.921Z,101.60
2023-04-29T04:18:52.936Z,92.88
2023-04-29T04:21:19.678Z,100.75
2023-04-29T04:23:54.532Z,91.82
2023-04-29T04:26:23.807Z,82.25
2023-04-29T04:28:59.357Z,76.68
2023-04-29T04:31:58.392Z,77.53
2023-04-29T04:34:26.307Z,75.28
2023-04-29T04:36:56.066Z,76.33
2023-04-29T04:39:23.006Z,68.32
2023-04-29T04:41:50.525Z,68.57
2023-04-29T04:44:18.545Z,68.35
2023-04-29T04:47:07.036Z,67.82
2023-04-29T04:49:49.913Z,66.95
2023-04-29T04:52:16.810Z,70.60
2023-04-29T04:54:48.860Z,70.43
2023-04-29T04:57:21.516Z,69.05
2023-04-29T04:59:48.216Z,71.15
2023-04-29T05:02:15.328Z,69.07
2023-04-29T05:04:41.939Z,67.70
2023-04-29T05:07:09.230Z,75.10
2023-04-29T05:09:55.558Z,68.97
2023-04-29T05:12:25.426Z,77.13
2023-04-29T05:14:55.381Z,85.03
2023-04-29T05:17:21.978Z,75.43
2023-04-29T05:19:48.550Z,83.40
2023-04-29T05:22:15.876Z,72.53
2023-04-29T05:24:42.824Z,76.70
2023-04-29T05:27:12.508Z,76.95
2023-04-29T05:29:39.342Z,84.07
2023-04-29T05:32:06.343Z,92.75
2023-04-29T05:34:33.135Z,80.30
2023-04-29T05:37:00.182Z,84.57
2023-04-29T05:39:27.350Z,76.05
2023-04-29T05:42:07.745Z,80.53
2023-04-29T05:44:41.891Z,79.78
2023-04-29T05:47:08.516Z,79.68
2023-04-29T05:49:36.919Z,86.00
2023-04-29T05:52:06.454Z,82.25
2023-04-29T05:54:38.573Z,82.70
2023-04-29T05:57:06.651Z,77.00
2023-04-29T05:59:33.687Z,71.78
2023-04-29T06:02:04.261Z,76.88
2023-04-29T06:04:31.293Z,66.60
2023-04-29T06:07:19.994Z,69.32
2023-04-29T06:10:15.964Z,65.65
2023-04-29T06:12:44.986Z,69.05
2023-04-29T06:15:12.730Z,63.95
2023-04-29T06:17:39.390Z,67.85
2023-04-29T06:20:07.394Z,68.80
2023-04-29T06:22:34.096Z,63.10
2023-04-29T06:25:03.557Z,70.13
2023-04-29T06:27:50.592Z,61.83
2023-04-29T06:30:20.350Z,58.10
2023-04-29T06:32:47.140Z,69.40
2023-04-29T06:35:13.854Z,56.58
2023-04-29T06:37:59.231Z,49.28
2023-04-29T06:40:42.452Z,54.65
2023-04-29T06:43:43.044Z,55.10
2023-04-29T06:46:29.162Z,54.20
2023-04-29T06:49:02.996Z,50.47
2023-04-29T06:51:32.078Z,52.40
2023-04-29T06:53:59.249Z,56.45
2023-04-29T06:56:26.055Z,50.65
2023-04-29T06:58:52.812Z,48.63
2023-04-29T07:01:19.465Z,46.05
2023-04-29T07:03:46.369Z,46.28
2023-04-29T07:06:13.191Z,52.45
2023-04-29T07:08:40.057Z,47.63
2023-04-29T07:11:07.728Z,41.70
2023-04-29T07:13:34.263Z,44.25
2023-04-29T07:16:00.850Z,49.47
2023-04-29T07:18:40.389Z,45.72
2023-04-29T07:21:08.383Z,45.53
2023-04-29T07:23:35.314Z,40.78
2023-04-29T07:26:13.264Z,45.97
2023-04-29T07:28:40.229Z,38.50
2023-04-29T07:31:09.084Z,42.13
2023-04-29T07:33:36.038Z,40.35
2023-04-29T07:36:06.245Z,38.30
2023-04-29T07:38:33.996Z,28.73
2023-04-29T07:41:00.636Z,36.88
2023-04-29T07:43:27.405Z,40.65
2023-04-29T07:45:54.192Z,31.48
2023-04-29T07:48:21.726Z,34.42
2023-04-29T07:50:48.597Z,33.75
2023-04-29T07:53:18.084Z,30.38
2023-04-29T07:55:44.770Z,32.88
2023-04-29T07:58:14.678Z,30.73
2023-04-29T08:00:41.494Z,29.95
2023-04-29T08:03:08.747Z,36.42
2023-04-29T08:05:36.555Z,28.00
2023-04-29T08:08:03.817Z,27.65
2023-04-29T08:10:30.860Z,30.60
2023-04-29T08:12:57.866Z,34.13
2023-04-29T08:15:24.504Z,33.20
2023-04-29T08:17:51.214Z,31.45
2023-04-29T08:20:17.958Z,37.47
2023-04-29T08:22:44.549Z,28.55
2023-04-29T08:25:11.293Z,31.80
2023-04-29T08:27:37.942Z,30.42
2023-04-29T08:30:05.044Z,30.02
2023-04-29T08:32:32.186Z,37.22
2023-04-29T08:34:59.977Z,36.63
2023-04-29T08:37:27.230Z,36.63
2023-04-29T08:39:54.154Z,34.28
2023-04-29T08:42:33.178Z,34.63
2023-04-29T08:45:00.038Z,34.17
2023-04-29T08:47:30.615Z,42.65
2023-04-29T08:50:04.053Z,39.75
2023-04-29T08:52:32.130Z,38.25
2023-04-29T08:54:59.793Z,45.15
2023-04-29T08:57:28.261Z,44.08
2023-04-29T08:59:54.855Z,42.75
2023-04-29T09:02:22.958Z,39.63
2023-04-29T09:04:58.784Z,42.20
2023-04-29T09:07:26.104Z,36.72
2023-04-29T09:09:53.684Z,45.58
2023-04-29T09:12:20.432Z,43.53
2023-04-29T09:14:47.030Z,42.08
2023-04-29T09:17:13.573Z,45.03
2023-04-29T09:19:40.286Z,48.33
2023-04-29T09:22:07.935Z,44.45
2023-04-29T09:24:34.596Z,56.10
2023-04-29T09:27:03.087Z,42.35
2023-04-29T09:29:30.892Z,51.55
2023-04-29T09:31:58.850Z,46.60
2023-04-29T09:34:40.978Z,49.95
2023-04-29T09:37:24.633Z,45.72
2023-04-29T09:39:51.340Z,50.97
2023-04-29T09:42:17.914Z,48.83
2023-04-29T09:44:45.172Z,45.92
2023-04-29T09:47:15.226Z,53.97
2023-04-29T09:49:45.495Z,47.50
2023-04-29T09:52:14.894Z,50.17
2023-04-29T09:54:42.474Z,57.40
2023-04-29T09:57:10.845Z,48.33
2023-04-29T09:59:40.006Z,49.95
2023-04-29T10:02:11.887Z,47.00
2023-04-29T10:04:40.801Z,54.00
2023-04-29T10:07:14.641Z,51.40
2023-04-29T10:09:53.110Z,46.28
2023-04-29T10:12:20.992Z,53.30
2023-04-29T10:14:57.295Z,50.80
2023-04-29T10:17:49.425Z,56.47
2023-04-29T10:20:22.730Z,53.17
2023-04-29T10:22:50.923Z,52.83
2023-04-29T10:25:20.014Z,51.15
2023-04-29T10:27:47.429Z,50.55
2023-04-29T10:30:15.156Z,48.35
2023-04-29T10:35:19.087Z,54.33
2023-04-29T10:37:47.458Z,53.45
2023-04-29T10:40:55.011Z,49.22
2023-04-29T10:43:25.160Z,48.42
2023-04-29T10:46:18.219Z,39.38
2023-04-29T10:48:48.348Z,44.80
2023-04-29T10:51:44.601Z,53.45
2023-04-29T10:54:25.563Z,52.25
2023-04-29T10:56:54.152Z,51.75
2023-04-29T10:59:24.146Z,49.15
2023-04-29T11:01:52.631Z,49.03
2023-04-29T11:04:21.039Z,42.72
2023-04-29T11:06:52.993Z,47.50
2023-04-29T11:09:30.666Z,45.17
2023-04-29T11:12:05.685Z,42.47
2023-04-29T11:14:43.919Z,46.20
2023-04-29T11:17:13.424Z,45.67
2023-04-29T11:19:49.488Z,60.20
2023-04-29T11:22:18.786Z,55.92
2023-04-29T11:25:07.423Z,51.53
2023-04-29T11:27:38.997Z,51.90
2023-04-29T11:30:06.796Z,52.47
2023-04-29T11:32:39.074Z,53.22
2023-04-29T11:35:16.301Z,46.08
2023-04-29T11:37:45.327Z,50.90
2023-04-29T11:40:13.313Z,46.22
2023-04-29T11:42:46.437Z,54.80
2023-04-29T11:45:13.523Z,54.58
2023-04-29T11:47:43.653Z,53.13
2023-04-29T11:50:10.665Z,64.35
2023-04-29T11:52:39.249Z,48.45
2023-04-29T11:55:08.352Z,46.80
2023-04-29T11:57:35.183Z,41.42
2023-04-29T12:00:05.137Z,45.55
2023-04-29T12:02:35.105Z,42.65
2023-04-29T12:05:08.569Z,38.92
2023-04-29T12:07:36.349Z,45.05
2023-04-29T12:10:03.824Z,41.22
2023-04-29T12:12:34.991Z,40.90
2023-04-29T12:15:03.643Z,40.40
2023-04-29T12:17:30.373Z,39.55
2023-04-29T12:19:57.814Z,37.78
2023-04-29T12:22:33.875Z,35.65
2023-04-29T12:25:03.517Z,36.20
2023-04-29T12:27:30.164Z,40.05
2023-04-29T12:29:58.172Z,38.88
2023-04-29T12:32:25.796Z,40.03
2023-04-29T12:34:53.280Z,38.92
2023-04-29T12:37:23.026Z,39.13
2023-04-29T12:39:50.237Z,41.15
2023-04-29T12:42:17.244Z,37.50
2023-04-29T12:44:47.504Z,40.55
2023-04-29T12:47:15.299Z,36.83
2023-04-29T12:49:46.467Z,36.22
2023-04-29T12:52:14.347Z,37.30
2023-04-29T12:54:43.284Z,36.00
2023-04-29T12:57:10.985Z,34.60
2023-04-29T12:59:38.343Z,33.33
2023-04-29T13:02:05.328Z,37.22
2023-04-29T13:04:32.424Z,34.10
2023-04-29T13:07:02.582Z,37.33
2023-04-29T13:09:30.576Z,40.42
2023-04-29T13:11:59.559Z,41.83
2023-04-29T13:14:26.866Z,42.50
2023-04-29T13:16:53.912Z,46.80
2023-04-29T13:19:36.339Z,45.03
2023-04-29T13:22:07.405Z,47.28
2023-04-29T13:24:35.759Z,48.33
2023-04-29T13:27:03.984Z,49.75
2023-04-29T13:29:31.066Z,44.42
2023-04-29T13:31:57.781Z,44.72
2023-04-29T13:34:24.526Z,41.00
2023-04-29T13:36:51.131Z,45.95
2023-04-29T13:39:20.182Z,46.00
2023-04-29T13:41:47.054Z,33.13
2023-04-29T13:46:44.383Z,27.33
2023-04-29T13:49:35.844Z,24.45
2023-04-29T13:54:55.521Z,25.67
2023-04-29T13:58:02.977Z,20.00
2023-04-29T14:00:10.569Z,23.80
2023-04-29T14:05:25.198Z,23.40
2023-04-29T14:07:52.127Z,20.02
2023-04-29T14:10:18.749Z,22.48
2023-04-29T14:12:45.613Z,21.42
2023-04-29T14:15:12.228Z,22.88
2023-04-29T14:17:38.891Z,22.40
2023-04-29T14:20:06.354Z,17.00
2023-04-29T14:22:33.008Z,18.08
2023-04-29T14:24:59.729Z,22.02
2023-04-29T14:27:26.648Z,21.88
2023-04-29T14:29:53.344Z,19.40
2023-04-29T14:32:19.994Z,21.10
2023-04-29T14:34:46.538Z,23.33
2023-04-29T14:37:13.111Z,21.50
2023-04-29T14:39:40.085Z,24.08
2023-04-29T14:42:06.880Z,23.80
2023-04-29T14:44:33.436Z,22.17
2023-04-29T14:47:00.593Z,23.10
2023-04-29T14:49:28.140Z,23.85
2023-04-29T14:51:56.195Z,18.23
2023-04-29T14:54:22.852Z,20.60
2023-04-29T14:56:49.934Z,22.13
2023-04-29T14:59:16.663Z,21.23
2023-04-29T15:01:43.475Z,23.30
2023-04-29T15:04:10.169Z,22.02
2023-04-29T15:06:37.354Z,19.73
2023-04-29T15:09:04.883Z,20.75
2023-04-29T15:11:31.428Z,19.50
2023-04-29T15:13:58.310Z,19.80
2023-04-29T15:16:24.966Z,22.50
2023-04-29T15:18:51.661Z,18.85
2023-04-29T15:21:18.201Z,16.48
2023-04-29T15:23:44.830Z,23.42
2023-04-29T15:26:11.527Z,15.63
2023-04-29T15:28:38.174Z,16.52
2023-04-29T15:31:05.489Z,16.58
2023-04-29T15:33:33.060Z,16.77
2023-04-29T15:35:59.741Z,15.27
2023-04-29T15:38:26.483Z,18.60
2023-04-29T15:40:59.420Z,18.92
2023-04-29T15:43:27.627Z,22.30
2023-04-29T15:45:54.402Z,16.55
2023-04-29T15:48:21.158Z,17.73
2023-04-29T15:50:47.794Z,16.98
2023-04-29T15:53:14.486Z,17.15
2023-04-29T15:55:41.138Z,13.18
2023-04-29T15:58:07.924Z,12.60
2023-04-29T16:00:34.659Z,11.88
2023-04-29T16:03:01.393Z,13.30
2023-04-29T16:05:37.342Z,14.43
2023-04-29T16:08:11.342Z,15.77
2023-04-29T16:10:37.938Z,13.57
2023-04-29T16:13:04.706Z,15.07
2023-04-29T16:15:31.426Z,17.90
2023-04-29T16:17:58.402Z,14.15
2023-04-29T16:20:25.728Z,15.20
2023-04-29T16:22:54.887Z,13.55
2023-04-29T16:25:21.760Z,12.25
2023-04-29T16:27:48.302Z,18.20
2023-04-29T16:30:15.100Z,13.43
2023-04-29T16:32:42.888Z,16.00
2023-04-29T16:35:10.335Z,18.90
2023-04-29T16:37:37.437Z,13.32
2023-04-29T16:40:04.902Z,13.38
2023-04-29T16:42:31.525Z,15.25
2023-04-29T16:44:58.183Z,15.25
2023-04-29T16:47:24.969Z,16.10
2023-04-29T16:49:51.979Z,18.45
2023-04-29T16:52:20.660Z,17.17
2023-04-29T16:54:47.254Z,16.73
2023-04-29T16:57:13.816Z,14.40
2023-04-29T16:59:40.485Z,17.60
2023-04-29T17:02:07.194Z,15.55
2023-04-29T17:04:33.974Z,14.32
2023-04-29T17:07:01.555Z,14.98
2023-04-29T17:09:28.262Z,12.75
2023-04-29T17:11:55.144Z,13.00
2023-04-29T17:14:21.816Z,13.60
2023-04-29T17:16:48.374Z,13.80
2023-04-29T17:19:14.944Z,13.43
2023-04-29T17:21:41.549Z,16.10
2023-04-29T17:24:08.057Z,17.63
2023-04-29T17:26:34.585Z,11.02
2023-04-29T17:29:01.197Z,14.63
2023-04-29T17:31:44.534Z,13.00
2023-04-29T17:34:18.337Z,13.65
2023-04-29T17:36:48.240Z,19.35
2023-04-29T17:39:14.818Z,17.23
2023-04-29T17:41:41.726Z,16.42
2023-04-29T17:44:08.740Z,15.43
2023-04-29T17:46:36.144Z,12.15
2023-04-29T17:49:03.835Z,12.32
2023-04-29T17:51:34.326Z,10.40
2023-04-29T17:54:01.843Z,14.60
2023-04-29T17:56:28.505Z,14.80
2023-04-29T17:58:55.311Z,14.48
2023-04-29T18:01:22.107Z,19.40
2023-04-29T18:03:50.819Z,20.48
2023-04-29T18:06:18.214Z,17.63
2023-04-29T18:08:45.682Z,19.17
2023-04-29T18:11:14.928Z,19.67
2023-04-29T18:13:41.700Z,17.55
2023-04-29T18:16:08.827Z,12.57
2023-04-29T18:18:38.984Z,11.80
2023-04-29T18:21:06.054Z,15.82
2023-04-29T18:23:32.588Z,17.67
2023-04-29T18:25:59.785Z,12.32
2023-04-29T18:28:29.278Z,16.67
2023-04-29T18:30:56.951Z,11.40
2023-04-29T18:33:24.580Z,13.68
2023-04-29T18:35:51.621Z,13.50
2023-04-29T18:38:18.240Z,13.38
2023-04-29T18:40:45.195Z,11.43
2023-04-29T18:43:15.057Z,9.63
2023-04-29T18:45:41.695Z,15.07
2023-04-29T18:48:08.593Z,12.73
2023-04-29T18:50:35.314Z,14.13
2023-04-29T18:53:02.039Z,15.82
2023-04-29T18:55:28.790Z,16.35
2023-04-29T18:57:55.522Z,17.70
2023-04-29T19:00:22.467Z,11.75
2023-04-29T19:02:49.272Z,14.52
2023-04-29T19:05:16.323Z,14.70
2023-04-29T19:07:43.239Z,13.43
2023-04-29T19:10:10.148Z,13.52
2023-04-29T19:12:36.722Z,13.13
2023-04-29T19:15:03.568Z,10.85
2023-04-29T19:17:30.128Z,11.65
2023-04-29T19:19:56.854Z,15.05
2023-04-29T19:22:24.658Z,9.20
2023-04-29T19:24:54.428Z,12.52
2023-04-29T19:27:21.334Z,15.73
2023-04-29T19:29:47.978Z,14.30
2023-04-29T19:32:15.070Z,11.48
2023-04-29T19:34:41.706Z,12.70
2023-04-29T19:37:11.260Z,12.32
2023-04-29T19:39:38.206Z,18.98
2023-04-29T19:42:04.765Z,18.15
2023-04-29T19:44:31.409Z,52.70
2023-04-29T19:46:58.728Z,23.75
2023-04-29T19:49:27.740Z,20.55
2023-04-29T19:51:54.505Z,19.15
2023-04-29T19:54:21.278Z,21.35
2023-04-29T19:56:47.958Z,21.60
2023-04-29T19:59:14.803Z,17.17
2023-04-29T20:01:41.703Z,21.88
2023-04-29T20:04:09.944Z,22.08
2023-04-29T20:06:37.983Z,18.98
2023-04-29T20:09:04.819Z,15.75
2023-04-29T20:11:31.488Z,20.15
2023-04-29T20:13:58.660Z,24.60
2023-04-29T20:16:27.638Z,16.17
2023-04-29T20:18:54.609Z,20.30
2023-04-29T20:21:21.212Z,19.05
2023-04-29T20:23:49.016Z,22.55
2023-04-29T20:26:17.284Z,15.93
2023-04-29T20:28:44.480Z,15.95
2023-04-29T20:31:11.015Z,18.75
2023-04-29T20:33:37.564Z,20.45
2023-04-29T20:36:06.692Z,24.95
2023-04-29T20:38:36.192Z,18.10
2023-04-29T20:41:03.466Z,19.85
2023-04-29T20:43:30.210Z,24.77
2023-04-29T20:46:00.493Z,20.25
2023-04-29T20:48:28.151Z,16.63
2023-04-29T20:50:55.824Z,17.20
2023-04-29T20:53:22.719Z,20.40
2023-04-29T20:55:49.331Z,22.95
2023-04-29T20:58:16.301Z,23.38
2023-04-29T21:00:42.987Z,28.95
2023-04-29T21:03:10.347Z,28.90
2023-04-29T21:05:38.267Z,28.63
2023-04-29T21:08:05.903Z,29.25
2023-04-29T21:10:32.565Z,32.95
2023-04-29T21:12:59.147Z,31.00
2023-04-29T21:15:27.009Z,29.17
2023-04-29T21:17:53.681Z,30.10
2023-04-29T21:20:20.382Z,24.05
2023-04-29T21:22:47.006Z,28.77
2023-04-29T21:25:13.563Z,30.02
2023-04-29T21:27:40.221Z,29.02
2023-04-29T21:30:07.573Z,31.25
2023-04-29T21:32:35.841Z,26.30
2023-04-29T21:35:03.284Z,25.42
2023-04-29T21:37:30.651Z,22.17
2023-04-29T21:40:00.055Z,22.33
2023-04-29T21:42:26.946Z,27.45
2023-04-29T21:44:55.352Z,21.92
2023-04-29T21:47:21.938Z,23.00
2023-04-29T21:49:48.952Z,21.88
2023-04-29T21:52:15.695Z,20.92
2023-04-29T21:54:45.414Z,22.88
2023-04-29T21:57:15.384Z,27.20
2023-04-29T21:59:42.099Z,19.63
2023-04-29T22:02:15.063Z,22.27
2023-04-29T22:04:41.830Z,23.73
2023-04-29T22:07:09.060Z,22.02
2023-04-29T22:09:36.477Z,24.13
2023-04-29T22:12:03.349Z,26.70
2023-04-29T22:14:30.004Z,31.35
2023-04-29T22:16:56.628Z,27.70
2023-04-29T22:19:24.445Z,22.05
2023-04-29T22:21:51.437Z,24.60
2023-04-29T22:24:18.051Z,23.50
2023-04-29T22:26:44.749Z,23.48
2023-04-29T22:29:11.464Z,28.73
2023-04-29T22:31:38.006Z,26.33
2023-04-29T22:34:04.678Z,25.77
2023-04-29T22:36:32.061Z,24.92
2023-04-29T22:38:58.728Z,25.77
2023-04-29T22:41:25.637Z,24.25
2023-04-29T22:43:56.951Z,28.75
2023-04-29T22:46:24.693Z,22.48
2023-04-29T22:48:51.444Z,26.02
2023-04-29T22:51:18.152Z,19.88
2023-04-29T22:53:44.741Z,20.95
2023-04-29T22:56:11.631Z,21.00
2023-04-29T22:58:39.446Z,19.50
2023-04-29T23:01:06.613Z,19.35
2023-04-29T23:03:33.599Z,20.63
2023-04-29T23:06:01.121Z,14.80
2023-04-29T23:08:28.084Z,26.30
2023-04-29T23:10:54.752Z,25.05
2023-04-29T23:13:21.424Z,14.77
2023-04-29T23:15:47.989Z,16.85
2023-04-29T23:18:14.689Z,17.02
2023-04-29T23:20:41.340Z,15.65
2023-04-29T23:23:08.576Z,20.33
2023-04-29T23:25:35.139Z,18.00
2023-04-29T23:28:01.808Z,16.45
2023-04-29T23:30:28.404Z,19.70
2023-04-29T23:32:55.303Z,18.58
2023-04-29T23:35:22.073Z,17.13
2023-04-29T23:37:48.695Z,18.20
2023-04-29T23:40:16.027Z,22.15
2023-04-29T23:42:43.169Z,19.50
2023-04-29T23:45:10.108Z,22.90
2023-04-29T23:47:36.726Z,21.40
2023-04-29T23:50:04.026Z,16.55
2023-04-29T23:52:30.616Z,16.25
2023-04-29T23:54:57.203Z,19.40
2023-04-29T23:57:23.750Z,20.33
2023-04-29T23:59:50.474Z,22.42
